Time;durP1;ratioP1;P1;durP2;ratioP2;P2;SDS_P1;SDS_P2;PMS_P1;PMS_P2;Temp;Humidity;BMP_temperature;BMP_pressure;BME280_temperature;BME280_humidity;BME280_pressure;Samples;Min_cycle;Max_cycle;Signal;HPM_P1;HPM_P2
2021/12/07 00:00:10;;;;;;;15.00;7.28;;;;;;;1.42;72.50;99088.09;4975526;28;20054;-64
2021/12/07 00:02:42;;;;;;;15.38;7.85;;;;;;;1.43;72.94;99079.72;4975865;28;20141;-64
2021/12/07 00:05:15;;;;;;;14.50;7.15;;;;;;;1.39;72.61;99072.94;4975620;28;20069;-62
2021/12/07 00:07:47;;;;;;;15.82;7.45;;;;;;;1.37;72.32;99072.06;4975442;28;20071;-62
2021/12/07 00:10:20;;;;;;;14.25;6.88;;;;;;;1.32;72.16;99080.31;4975629;28;20473;-62
2021/12/07 00:12:55;;;;;;;15.63;7.35;;;;;;;1.29;72.86;99087.78;4975670;28;20378;-65
2021/12/07 00:15:30;;;;;;;16.08;7.38;;;;;;;1.23;72.34;99087.59;4975627;28;20460;-63
2021/12/07 00:18:02;;;;;;;15.88;7.63;;;;;;;1.23;73.01;99091.78;4975301;28;20137;-65
2021/12/07 00:20:35;;;;;;;15.20;7.43;;;;;;;1.31;72.50;99081.13;4975201;28;20126;-63
2021/12/07 00:23:10;;;;;;;14.82;7.20;;;;;;;1.24;72.08;99074.25;4975786;28;20050;-63
2021/12/07 00:25:42;;;;;;;13.13;7.00;;;;;;;1.23;72.48;99067.50;4974247;28;20054;-62
2021/12/07 00:28:19;;;;;;;16.77;7.43;;;;;;;1.21;72.70;99063.25;4975418;28;20065;-62
2021/12/07 00:30:53;;;;;;;16.02;7.40;;;;;;;1.16;73.06;99060.63;4975552;28;20047;-64
2021/12/07 00:33:41;;;;;;;18.27;7.45;;;;;;;1.21;72.59;99059.09;4975105;28;20097;-65
2021/12/07 00:36:13;;;;;;;13.98;6.97;;;;;;;1.25;72.75;99065.88;4974136;28;20039;-62
2021/12/07 00:38:47;;;;;;;16.15;6.90;;;;;;;1.19;72.94;99073.28;4975281;28;20422;-64
2021/12/07 00:41:19;;;;;;;15.75;8.23;;;;;;;1.13;72.93;99070.59;4975206;28;20097;-63
2021/12/07 00:43:56;;;;;;;15.80;6.70;;;;;;;1.14;72.17;99072.28;4975217;28;20087;-64
2021/12/07 00:46:28;;;;;;;15.88;6.88;;;;;;;1.08;72.90;99063.75;4974834;28;20045;-62
2021/12/07 00:49:01;;;;;;;14.68;7.45;;;;;;;1.09;73.24;99053.72;4974158;28;20050;-63
2021/12/07 00:51:34;;;;;;;16.35;6.82;;;;;;;1.10;72.58;99045.41;4974825;28;20051;-63
2021/12/07 00:54:09;;;;;;;16.83;7.15;;;;;;;1.12;73.21;99052.97;4974838;28;20051;-63
2021/12/07 00:56:42;;;;;;;15.27;5.70;;;;;;;1.16;72.67;99060.63;4975113;28;20054;-65
2021/12/07 00:59:16;;;;;;;16.77;7.03;;;;;;;1.12;72.94;99073.94;4974784;28;20043;-63
2021/12/07 01:01:45;;;;;;;14.50;6.85;;;;;;;1.07;72.70;99069.56;4973600;28;20050;-64
2021/12/07 01:04:16;;;;;;;12.43;6.80;;;;;;;1.09;73.29;99068.81;4975326;28;20385;-64
2021/12/07 01:07:00;;;;;;;13.77;6.10;;;;;;;1.14;72.88;99061.38;4974759;28;20043;-65
2021/12/07 01:24:39;;;;;;;15.52;6.40;;;;;;;1.14;73.30;99051.34;4974859;28;20050;-65
2021/12/07 01:26:16;;;;;;;13.65;6.15;;;;;;;1.13;72.83;99025.34;4970187;28;20489;-66
2021/12/07 01:28:49;;;;;;;14.57;6.60;;;;;;;1.11;72.61;99032.00;4974822;28;20491;-62
2021/12/07 01:31:29;;;;;;;14.75;6.80;;;;;;;1.08;73.09;99021.88;4974781;28;20138;-61
2021/12/07 01:34:18;;;;;;;14.30;6.32;;;;;;;1.07;73.11;99017.69;4973234;28;20057;-66
2021/12/07 01:37:09;;;;;;;;;;;;;;;1.10;72.77;99020.28;4973636;28;20090;-64
2021/12/07 01:40:05;;;;;;;12.88;6.30;;;;;;;1.04;73.16;99022.63;4974334;28;19922;-64
2021/12/07 01:42:54;;;;;;;15.38;6.53;;;;;;;0.97;73.16;99032.47;4974615;28;20193;-65
2021/12/07 01:45:57;;;;;;;12.45;5.80;;;;;;;0.97;73.63;99030.81;4974310;28;20047;-66
2021/12/07 01:51:42;;;;;;;11.27;5.50;;;;;;;1.01;72.67;99027.56;4974352;28;20101;-66
2021/12/07 01:59:48;;;;;;;;;;;;;;;0.95;73.04;99019.88;4956846;28;20051;-66
2021/12/07 02:02:24;;;;;;;12.38;4.93;;;;;;;1.01;73.42;99020.00;4976121;28;19966;-64
2021/12/07 02:04:56;;;;;;;14.07;6.30;;;;;;;1.01;73.40;99011.66;4975695;28;20051;-65
2021/12/07 02:07:32;;;;;;;14.05;6.05;;;;;;;0.91;73.07;99008.03;4975566;28;20043;-62
2021/12/07 02:12:50;;;;;;;14.60;6.00;;;;;;;0.87;73.55;99006.25;4949055;29;20047;-63
2021/12/07 02:15:28;;;;;;;13.77;6.00;;;;;;;0.97;72.86;99008.19;4956407;29;20039;-64
2021/12/07 02:18:01;;;;;;;18.67;5.70;;;;;;;1.02;73.12;99006.66;4956579;29;20073;-63
2021/12/07 02:20:35;;;;;;;13.65;6.13;;;;;;;1.02;73.70;98995.75;4956145;29;20051;-65
2021/12/07 02:23:06;;;;;;;13.05;5.97;;;;;;;0.94;73.40;98998.06;4956045;29;20051;-64
2021/12/07 02:25:39;;;;;;;14.77;6.45;;;;;;;0.91;72.82;98997.97;4955134;29;20062;-66
2021/12/07 02:28:15;;;;;;;14.57;6.88;;;;;;;0.96;73.45;99006.47;4956025;29;20078;-66
2021/12/07 02:30:48;;;;;;;11.73;5.60;;;;;;;0.91;72.61;99003.00;4956055;29;20126;-65
2021/12/07 02:33:17;;;;;;;14.32;6.47;;;;;;;0.82;72.85;99002.75;4955837;29;20047;-64
2021/12/07 02:35:47;;;;;;;10.00;5.80;;;;;;;0.82;73.24;99012.81;4955942;29;20410;-63
2021/12/07 02:38:21;;;;;;;16.35;5.95;;;;;;;0.80;73.21;99016.09;4956308;29;20115;-64
2021/12/07 02:40:54;;;;;;;14.43;5.68;;;;;;;0.78;73.33;99011.03;4955773;29;20163;-66
2021/12/07 02:43:27;;;;;;;12.73;5.43;;;;;;;0.82;73.03;99011.94;4955708;29;20130;-65
2021/12/07 02:46:00;;;;;;;13.98;6.03;;;;;;;0.79;73.53;99002.69;4955631;29;20078;-64
2021/12/07 02:48:33;;;;;;;15.18;6.35;;;;;;;0.82;73.71;99002.75;4955644;29;20051;-66
2021/12/07 02:51:08;;;;;;;15.43;6.20;;;;;;;0.88;73.71;99013.00;4971478;28;20408;-66
2021/12/07 02:53:43;;;;;;;13.95;6.15;;;;;;;0.89;73.13;99019.69;4975754;28;20105;-64
2021/12/07 02:56:15;;;;;;;14.95;5.68;;;;;;;0.90;73.09;99026.44;4976849;28;20051;-63
2021/12/07 02:58:48;;;;;;;17.27;6.43;;;;;;;0.96;73.47;99026.56;4977360;28;20050;-65
2021/12/07 03:01:29;;;;;;;11.60;5.65;;;;;;;0.93;73.33;99026.53;4975567;28;20061;-63
2021/12/07 03:04:03;;;;;;;12.77;6.45;;;;;;;0.86;73.35;99029.69;4976626;28;20051;-65
2021/12/07 03:06:52;;;;;;;12.25;5.75;;;;;;;0.96;73.36;99026.56;4976547;28;20139;-65
2021/12/07 03:26:10;;;;;;;16.63;6.73;;;;;;;1.21;71.84;99045.66;4955145;29;20058;-64
2021/12/07 03:28:49;;;;;;;15.23;6.47;;;;;;;1.26;72.42;99050.00;4974129;28;20309;-64
2021/12/07 03:31:26;;;;;;;13.43;6.32;;;;;;;1.22;71.69;99045.69;4976491;28;20050;-65
2021/12/07 03:34:01;;;;;;;16.58;6.47;;;;;;;1.28;72.35;99050.88;4976079;28;20050;-64
2021/12/07 03:36:39;;;;;;;13.23;6.30;;;;;;;1.30;71.85;99059.31;4975975;28;20129;-66
2021/12/07 03:39:11;;;;;;;16.02;6.03;;;;;;;1.32;72.40;99057.69;4976041;28;20061;-66
2021/12/07 03:41:43;;;;;;;13.65;6.80;;;;;;;1.20;72.03;99044.81;4975949;28;20077;-64
2021/12/07 03:44:13;;;;;;;12.45;6.40;;;;;;;1.37;71.76;99059.47;4975896;28;20054;-64
2021/12/07 03:46:46;;;;;;;14.98;6.57;;;;;;;1.32;72.19;99052.66;4975737;28;20150;-64
2021/12/07 03:49:19;;;;;;;15.27;6.03;;;;;;;1.29;71.91;99047.56;4975855;28;20058;-63
2021/12/07 03:51:51;;;;;;;13.27;6.28;;;;;;;1.28;72.01;99048.38;4974925;28;20133;-63
2021/12/07 03:54:24;;;;;;;12.35;6.07;;;;;;;1.26;71.79;99042.47;4975711;28;20141;-63
2021/12/07 03:56:58;;;;;;;17.40;7.18;;;;;;;1.22;72.60;99045.69;4975602;28;20125;-65
2021/12/07 03:59:31;;;;;;;12.20;6.10;;;;;;;1.19;72.40;99040.59;4975636;28;20057;-67
2021/12/07 04:02:04;;;;;;;15.88;6.57;;;;;;;1.20;72.40;99047.31;4975919;28;20043;-63
2021/12/07 04:04:37;;;;;;;13.43;5.93;;;;;;;1.24;72.78;99039.06;4975548;28;20166;-63
2021/12/07 04:07:11;;;;;;;13.65;6.05;;;;;;;1.21;71.74;99036.47;4975406;28;20046;-63
2021/12/07 04:09:43;;;;;;;16.27;5.78;;;;;;;1.20;72.05;99037.25;4976045;28;20405;-64
2021/12/07 04:12:17;;;;;;;18.15;6.95;;;;;;;1.18;71.91;99036.38;4975435;28;20113;-62
2021/12/07 04:14:49;;;;;;;15.32;6.25;;;;;;;1.21;72.35;99035.59;4975676;28;20055;-62
2021/12/07 04:17:23;;;;;;;14.90;5.95;;;;;;;1.15;71.51;99028.75;4974081;28;20504;-65
2021/12/07 04:19:56;;;;;;;15.65;6.22;;;;;;;1.06;72.21;99033.56;4975297;28;20093;-63
2021/12/07 04:22:30;;;;;;;16.33;6.85;;;;;;;1.04;72.10;99034.31;4975221;28;20051;-65
2021/12/07 04:25:02;;;;;;;15.93;6.95;;;;;;;0.99;72.29;99036.72;4973444;28;20079;-65
2021/12/07 04:27:39;;;;;;;15.80;6.53;;;;;;;1.02;72.47;99038.47;4975049;28;20057;-63
2021/12/07 04:30:14;;;;;;;15.15;6.07;;;;;;;1.01;72.49;99037.59;4975150;28;20134;-63
2021/12/07 04:32:47;;;;;;;15.18;6.38;;;;;;;0.99;72.65;99041.75;4975095;28;20055;-62
2021/12/07 04:35:21;;;;;;;14.18;6.38;;;;;;;0.95;72.05;99039.97;4975378;28;20055;-63
2021/12/07 04:37:53;;;;;;;14.82;7.20;;;;;;;1.09;72.62;99042.81;4974982;28;20051;-63
2021/12/07 04:40:28;;;;;;;16.23;7.25;;;;;;;1.05;71.94;99039.41;4975040;28;20051;-62
2021/12/07 04:43:03;;;;;;;16.35;6.90;;;;;;;1.08;71.92;99036.94;4974077;28;20504;-65
2021/12/07 04:45:45;;;;;;;16.05;7.50;;;;;;;1.08;72.33;99041.97;4974919;28;20082;-66
2021/12/07 04:48:47;;;;;;;15.88;6.90;;;;;;;0.98;72.21;99035.03;4974794;28;20082;-65
2021/12/07 04:59:33;;;;;;;20.55;7.57;;;;;;;1.05;72.18;99026.00;4974701;28;20059;-64
2021/12/07 05:02:07;;;;;;;16.73;7.05;;;;;;;1.05;71.93;99029.34;4975087;28;20062;-65
2021/12/07 05:04:40;;;;;;;18.55;8.38;;;;;;;1.01;71.90;99035.09;4974686;28;20050;-64
2021/12/07 05:07:14;;;;;;;22.85;8.18;;;;;;;0.95;71.81;99029.91;4974861;28;20556;-64
2021/12/07 05:12:56;;;;;;;16.98;8.80;;;;;;;0.96;72.49;99028.25;4966686;28;20043;-63
2021/12/07 05:15:57;;;;;;;14.88;7.10;;;;;;;0.96;72.43;99036.63;4974632;28;20421;-64
2021/12/07 05:23:56;;;;;;;22.70;7.25;;;;;;;1.06;72.22;99032.69;4974037;28;20058;-64
2021/12/07 05:37:54;;;;;;;19.13;7.93;;;;;;;1.05;71.92;99041.06;4970198;28;20050;-65
2021/12/07 05:40:28;;;;;;;17.08;7.25;;;;;;;1.04;71.69;99042.72;4978163;28;20074;-64
2021/12/07 05:43:01;;;;;;;17.98;6.90;;;;;;;1.00;72.06;99032.53;4978751;28;20050;-63
2021/12/07 05:45:37;;;;;;;15.52;6.82;;;;;;;1.03;72.35;99035.97;4978404;28;20046;-63
2021/12/07 05:48:11;;;;;;;18.58;7.55;;;;;;;0.97;72.25;99033.31;4978017;28;20042;-65
2021/12/07 05:50:42;;;;;;;19.50;7.90;;;;;;;0.98;72.36;99044.22;4978056;28;20070;-64
2021/12/07 05:53:15;;;;;;;20.25;7.68;;;;;;;1.02;71.97;99041.81;4978126;28;20493;-65
2021/12/07 05:55:45;;;;;;;21.42;7.63;;;;;;;1.01;71.96;99037.59;4977891;28;20044;-64
2021/12/07 05:58:19;;;;;;;18.20;6.95;;;;;;;0.93;72.18;99044.09;4977807;28;20098;-65
2021/12/07 06:00:57;;;;;;;20.13;7.38;;;;;;;0.93;72.71;99045.75;4977822;28;20047;-63
2021/12/07 06:03:32;;;;;;;16.17;7.05;;;;;;;0.92;72.56;99039.88;4978102;28;20035;-64
2021/12/07 06:06:04;;;;;;;24.38;7.78;;;;;;;0.95;72.14;99042.47;4977727;28;20051;-65
2021/12/07 06:08:35;;;;;;;;;;;;;;;0.96;72.87;99046.66;4978008;28;20049;-65
2021/12/07 06:11:05;;;;;;;16.67;6.03;;;;;;;1.00;72.25;99043.44;4977660;28;19931;-64
2021/12/07 06:13:35;;;;;;;15.38;7.28;;;;;;;1.01;72.12;99045.13;4977501;28;20047;-65
2021/12/07 06:16:08;;;;;;;16.02;6.75;;;;;;;1.01;72.60;99050.16;4977896;28;20073;-65
2021/12/07 06:18:39;;;;;;;18.73;7.35;;;;;;;1.02;72.13;99051.88;4977191;28;20540;-64
2021/12/07 06:21:12;;;;;;;17.27;7.38;;;;;;;0.97;72.72;99048.38;4977746;28;20404;-64
2021/12/07 06:23:45;;;;;;;16.60;7.55;;;;;;;0.95;71.88;99050.00;4977324;28;20051;-65
2021/12/07 06:26:18;;;;;;;21.33;8.35;;;;;;;0.87;72.65;99053.97;4977327;28;20042;-63
2021/12/07 06:28:51;;;;;;;17.05;8.15;;;;;;;0.91;72.46;99053.22;4977299;28;20059;-63
2021/12/07 06:31:23;;;;;;;17.67;7.65;;;;;;;0.92;72.74;99057.47;4977229;28;20061;-63
2021/12/07 06:33:57;;;;;;;21.38;8.02;;;;;;;0.93;72.14;99051.63;4977253;28;20415;-63
2021/12/07 06:36:30;;;;;;;18.42;7.28;;;;;;;0.96;72.52;99061.75;4977195;28;20058;-64
2021/12/07 06:38:59;;;;;;;18.30;8.68;;;;;;;0.97;72.91;99063.47;4977400;28;20133;-64
2021/12/07 06:41:32;;;;;;;20.67;8.73;;;;;;;1.01;72.39;99060.22;4977847;28;20121;-64
2021/12/07 06:44:05;;;;;;;22.23;8.10;;;;;;;0.95;72.42;99060.06;4977337;28;20476;-64
2021/12/07 06:46:38;;;;;;;22.25;10.30;;;;;;;0.98;72.59;99062.66;4976358;28;20050;-64
2021/12/07 06:49:12;;;;;;;21.75;9.18;;;;;;;1.04;72.46;99064.47;4975882;28;20041;-63
2021/12/07 06:51:41;;;;;;;17.60;8.63;;;;;;;1.01;72.33;99060.22;4976801;28;20051;-64
2021/12/07 06:54:13;;;;;;;21.48;9.15;;;;;;;1.05;72.20;99067.03;4976977;28;20410;-64
2021/12/07 06:56:46;;;;;;;19.35;10.00;;;;;;;1.06;73.17;99063.69;4976808;28;20047;-64
2021/12/07 06:59:19;;;;;;;20.55;7.88;;;;;;;1.13;72.16;99055.50;4977126;28;20444;-63
2021/12/07 07:01:51;;;;;;;21.63;9.15;;;;;;;1.18;72.20;99059.00;4976563;28;20571;-64
2021/12/07 07:04:26;;;;;;;22.77;9.38;;;;;;;1.19;72.08;99060.72;4976652;28;20055;-64
2021/12/07 07:06:58;;;;;;;17.17;7.10;;;;;;;1.19;72.19;99063.22;4976602;28;20464;-63
2021/12/07 07:09:30;;;;;;;21.00;9.13;;;;;;;1.19;72.25;99059.84;4976536;28;20583;-62
2021/12/07 07:12:03;;;;;;;21.42;8.50;;;;;;;1.16;72.25;99062.28;4976559;28;20097;-63
2021/12/07 07:14:35;;;;;;;23.52;10.15;;;;;;;1.16;72.32;99063.13;4976434;28;20133;-63
2021/12/07 07:17:08;;;;;;;25.33;10.57;;;;;;;1.25;72.86;99060.84;4977024;28;20042;-67
2021/12/07 07:19:42;;;;;;;22.23;9.88;;;;;;;1.37;72.70;99051.94;4976688;28;20479;-63
2021/12/07 07:22:32;;;;;;;22.60;10.13;;;;;;;1.52;72.55;99062.34;4976278;28;20138;-64
2021/12/07 07:25:02;;;;;;;20.35;9.27;;;;;;;1.62;72.13;99064.28;4954713;29;20053;-63
2021/12/07 07:27:34;;;;;;;23.13;8.85;;;;;;;1.72;72.26;99059.53;4955044;29;20073;-64
2021/12/07 07:30:09;;;;;;;25.02;10.90;;;;;;;1.76;71.35;99065.47;4954887;29;20050;-63
2021/12/07 07:32:42;;;;;;;23.77;8.82;;;;;;;1.82;71.67;99060.59;4938775;29;20051;-65
2021/12/07 07:35:17;;;;;;;22.73;9.60;;;;;;;1.80;71.60;99058.03;4954732;29;20071;-63
2021/12/07 07:37:50;;;;;;;22.90;9.30;;;;;;;1.91;71.65;99056.63;4954953;29;20135;-64
2021/12/07 07:40:26;;;;;;;21.85;8.63;;;;;;;2.08;71.49;99064.56;4954723;29;20569;-63
2021/12/07 07:43:01;;;;;;;21.95;10.27;;;;;;;2.22;71.60;99063.22;4962808;28;20125;-65
2021/12/07 07:45:43;;;;;;;22.35;8.50;;;;;;;2.23;71.46;99059.84;4975744;28;20054;-64
2021/12/07 07:48:17;;;;;;;21.98;9.95;;;;;;;2.26;70.54;99059.06;4975527;28;20585;-63
2021/12/07 07:50:52;;;;;;;23.65;8.75;;;;;;;2.27;71.31;99061.66;4976185;28;20065;-64
2021/12/07 07:53:22;;;;;;;21.90;9.23;;;;;;;2.35;70.26;99059.28;4975309;28;20082;-64
2021/12/07 07:55:58;;;;;;;19.58;7.63;;;;;;;2.36;70.74;99055.94;4975547;28;20134;-63
2021/12/07 07:58:30;;;;;;;22.63;9.02;;;;;;;2.45;70.10;99067.06;4975177;28;20505;-65
2021/12/07 08:01:01;;;;;;;19.58;8.32;;;;;;;2.51;70.76;99052.09;4975767;28;20137;-65
2021/12/07 08:03:31;;;;;;;21.08;9.65;;;;;;;2.62;70.20;99054.81;4975638;28;20078;-64
2021/12/07 08:06:02;;;;;;;19.83;7.72;;;;;;;2.66;70.54;99054.91;4975676;28;20564;-64
2021/12/07 08:08:32;;;;;;;21.23;8.07;;;;;;;2.74;70.30;99050.03;4975611;28;20051;-65
2021/12/07 08:11:03;;;;;;;20.10;8.43;;;;;;;2.72;69.90;99057.56;4975269;28;20053;-64
2021/12/07 08:13:35;;;;;;;21.50;9.38;;;;;;;2.79;69.86;99057.69;4975291;28;20053;-65
2021/12/07 08:16:06;;;;;;;17.55;8.10;;;;;;;2.80;69.74;99049.31;4975510;28;20051;-65
2021/12/07 08:18:36;;;;;;;17.52;8.98;;;;;;;2.93;69.84;99056.31;4975046;28;20409;-64
2021/12/07 08:21:08;;;;;;;25.15;10.80;;;;;;;3.07;69.54;99059.94;4975158;28;20078;-65
2021/12/07 08:23:38;;;;;;;26.40;9.60;;;;;;;3.05;69.88;99056.50;4975007;28;20109;-65
2021/12/07 08:26:10;;;;;;;19.88;9.30;;;;;;;3.10;69.71;99050.72;4975015;28;20050;-64
2021/12/07 08:28:39;;;;;;;21.17;8.30;;;;;;;3.20;69.59;99051.75;4975272;28;20046;-64
2021/12/07 08:31:09;;;;;;;22.95;8.70;;;;;;;3.21;68.93;99053.47;4973998;28;20106;-67
2021/12/07 08:33:38;;;;;;;24.35;9.85;;;;;;;3.17;69.46;99054.22;4975045;28;20074;-65
2021/12/07 08:36:10;;;;;;;22.52;8.85;;;;;;;3.31;68.87;99055.34;4974894;28;20125;-64
2021/12/07 08:38:40;;;;;;;22.95;9.02;;;;;;;3.35;69.22;99062.13;4974766;28;20555;-66
2021/12/07 08:41:10;;;;;;;18.52;9.27;;;;;;;3.43;68.85;99060.59;4975119;28;20070;-66
2021/12/07 08:43:41;;;;;;;24.17;9.30;;;;;;;3.49;68.78;99069.91;4974822;28;20134;-63
2021/12/07 08:46:12;;;;;;;20.15;9.57;;;;;;;3.56;68.83;99065.00;4974778;28;20058;-66
2021/12/07 08:48:45;;;;;;;20.55;8.40;;;;;;;3.58;68.32;99070.94;4974683;28;20050;-64
2021/12/07 08:51:17;;;;;;;19.52;9.60;;;;;;;3.69;68.38;99069.44;4974754;28;20057;-65
2021/12/07 08:53:52;;;;;;;20.05;9.18;;;;;;;3.57;67.57;99069.25;4974679;28;20042;-63
2021/12/07 09:01:44;;;;;;;24.83;9.93;;;;;;;3.54;67.91;99064.13;4974921;28;20488;-65
2021/12/07 09:04:17;;;;;;;20.23;8.88;;;;;;;3.73;68.00;99070.34;4974372;28;20031;-65
2021/12/07 09:06:49;;;;;;;22.20;10.30;;;;;;;3.89;67.26;99068.06;4973797;28;20045;-64
2021/12/07 09:09:19;;;;;;;24.73;9.10;;;;;;;3.91;67.33;99075.69;4974034;28;20074;-63
2021/12/07 09:11:50;;;;;;;22.00;8.68;;;;;;;3.87;66.96;99071.41;4978124;28;20087;-66
2021/12/07 09:14:23;;;;;;;21.23;8.43;;;;;;;3.85;66.41;99071.38;4978425;28;20057;-66
2021/12/07 09:16:53;;;;;;;18.40;9.23;;;;;;;3.91;66.63;99081.56;4978216;28;20043;-63
2021/12/07 09:19:23;;;;;;;20.75;9.65;;;;;;;3.97;66.58;99074.09;4978051;28;20041;-63
2021/12/07 09:21:55;;;;;;;19.20;8.95;;;;;;;4.11;66.64;99063.34;4977336;28;20049;-64
2021/12/07 09:24:46;;;;;;;19.90;8.52;;;;;;;4.20;66.00;99068.56;4974316;28;20129;-65
2021/12/07 09:27:15;;;;;;;20.98;9.25;;;;;;;4.30;66.10;99067.84;4977075;28;20051;-65
2021/12/07 09:29:46;;;;;;;19.10;8.90;;;;;;;4.28;65.46;99066.97;4972872;28;20067;-67
2021/12/07 09:32:16;;;;;;;23.15;8.90;;;;;;;4.39;65.89;99065.47;4977836;28;20448;-66
2021/12/07 09:34:45;;;;;;;;;;;;;;;4.32;65.01;99068.72;4973174;28;20042;-63
2021/12/07 09:37:16;;;;;;;24.42;9.20;;;;;;;4.44;65.17;99051.22;4978201;28;20064;-63
2021/12/07 09:39:45;;;;;;;21.65;9.43;;;;;;;4.49;64.60;99057.16;4977146;28;20055;-65
2021/12/07 09:42:14;;;;;;;17.92;8.05;;;;;;;4.44;65.06;99058.78;4978181;28;20043;-64
2021/12/07 09:44:44;;;;;;;24.30;8.73;;;;;;;4.40;64.74;99046.94;4977928;28;20496;-64
2021/12/07 09:47:13;;;;;;;16.10;8.32;;;;;;;4.39;64.59;99055.34;4978005;28;20043;-65
2021/12/07 09:49:43;;;;;;;22.60;9.32;;;;;;;4.44;64.06;99052.03;4977703;28;20047;-65
2021/12/07 09:52:19;;;;;;;22.23;8.05;;;;;;;4.55;64.31;99050.53;4977876;28;20048;-64
2021/12/07 09:54:49;;;;;;;24.05;9.32;;;;;;;4.53;64.48;99054.72;4977891;28;20106;-65
2021/12/07 09:57:18;;;;;;;20.58;8.70;;;;;;;4.54;64.22;99056.41;4977932;28;20133;-64
2021/12/07 09:59:51;;;;;;;20.42;8.68;;;;;;;4.61;64.19;99054.78;4978103;28;20039;-65
2021/12/07 10:02:21;;;;;;;19.67;7.90;;;;;;;4.78;64.17;99055.00;4977676;28;20050;-64
2021/12/07 10:04:51;;;;;;;19.58;8.40;;;;;;;4.76;63.73;99047.41;4977571;28;20054;-64
2021/12/07 10:07:22;;;;;;;23.00;8.98;;;;;;;4.83;63.45;99048.31;4977315;28;20141;-65
2021/12/07 10:09:51;;;;;;;20.70;9.90;;;;;;;4.84;63.09;99047.50;4977458;28;20047;-65
2021/12/07 10:12:22;;;;;;;21.67;9.63;;;;;;;4.92;63.79;99044.22;4977519;28;20047;-64
2021/12/07 10:14:53;;;;;;;16.92;8.00;;;;;;;4.96;63.71;99040.06;4977916;28;20046;-65
2021/12/07 10:17:23;;;;;;;19.52;8.63;;;;;;;5.03;63.36;99032.56;4977519;28;20042;-64
2021/12/07 10:19:53;;;;;;;21.80;8.98;;;;;;;5.01;63.06;99043.50;4977361;28;20101;-65
2021/12/07 10:22:24;;;;;;;18.92;8.88;;;;;;;4.92;62.47;99028.22;4977816;28;20559;-65
2021/12/07 10:24:58;;;;;;;20.73;8.77;;;;;;;5.01;62.82;99043.50;4977711;28;20046;-64
2021/12/07 10:27:35;;;;;;;18.73;8.48;;;;;;;5.03;62.56;99041.81;4977649;28;20051;-64
2021/12/07 10:30:07;;;;;;;24.08;9.93;;;;;;;4.91;62.08;99047.59;4977233;28;20070;-64
2021/12/07 10:32:40;;;;;;;22.08;7.95;;;;;;;5.02;62.53;99040.97;4977349;28;20141;-65
2021/12/07 10:35:28;;;;;;;21.77;9.80;;;;;;;5.00;62.56;99041.78;4977415;28;20100;-65
2021/12/07 10:38:10;;;;;;;18.00;9.00;;;;;;;4.96;62.34;99038.38;4977416;28;20135;-64
2021/12/07 10:40:56;;;;;;;24.23;8.93;;;;;;;4.95;62.58;99044.25;4977028;28;20397;-66
2021/12/07 10:43:45;;;;;;;21.90;9.02;;;;;;;5.06;62.92;99040.16;4977096;28;20390;-65
2021/12/07 10:46:56;;;;;;;19.67;8.80;;;;;;;4.96;62.78;99038.38;4977364;28;20046;-64
2021/12/07 10:49:42;;;;;;;21.63;8.45;;;;;;;4.95;63.08;99039.19;4975156;28;20129;-64
2021/12/07 10:52:26;;;;;;;20.20;9.48;;;;;;;4.97;62.71;99045.13;4976869;28;20055;-64
2021/12/07 10:55:06;;;;;;;22.45;9.73;;;;;;;4.93;63.09;99040.00;4976847;28;20053;-64
2021/12/07 10:57:41;;;;;;;20.63;9.52;;;;;;;4.91;63.01;99051.78;4976663;28;20050;-64
2021/12/07 11:00:23;;;;;;;21.70;9.23;;;;;;;4.86;62.59;99059.31;4977100;28;20425;-64
2021/12/07 11:03:01;;;;;;;17.92;7.93;;;;;;;4.66;62.80;99050.66;4976637;28;20050;-63
2021/12/07 11:05:33;;;;;;;21.13;8.52;;;;;;;4.63;62.93;99060.75;4976849;28;20497;-65
2021/12/07 11:08:05;;;;;;;20.38;8.48;;;;;;;4.67;62.71;99062.47;4976523;28;20043;-65
2021/12/07 11:10:39;;;;;;;21.55;9.18;;;;;;;4.55;63.30;99062.31;4976682;28;20493;-65
2021/12/07 11:13:13;;;;;;;20.38;9.45;;;;;;;4.60;63.10;99064.06;4976410;28;20129;-63
2021/12/07 11:15:50;;;;;;;20.27;9.50;;;;;;;4.65;63.68;99064.13;4976505;28;20400;-65
2021/12/07 11:18:23;;;;;;;21.00;9.25;;;;;;;4.60;63.19;99060.69;4976598;28;20137;-66
2021/12/07 11:20:53;;;;;;;20.48;9.00;;;;;;;4.62;63.63;99064.06;4976298;28;20050;-65
2021/12/07 11:23:28;;;;;;;27.63;10.27;;;;;;;4.63;63.75;99063.25;4976563;28;20054;-64
2021/12/07 11:31:25;;;;;;;20.35;9.30;;;;;;;4.50;63.42;99068.97;4975874;28;20053;-64
2021/12/07 11:34:09;;;;;;;20.00;8.55;;;;;;;4.47;63.53;99068.91;4975488;28;20050;-64
2021/12/07 11:36:59;;;;;;;20.40;8.65;;;;;;;4.44;63.79;99063.84;4961369;28;20102;-64
2021/12/07 11:39:51;;;;;;;19.20;8.45;;;;;;;4.33;63.74;99072.94;4976207;28;20481;-64
2021/12/07 11:42:24;;;;;;;24.00;9.50;;;;;;;4.37;63.55;99077.19;4955030;29;20066;-64
2021/12/07 11:44:58;;;;;;;20.10;9.40;;;;;;;4.30;63.89;99068.69;4954627;29;20580;-64
2021/12/07 11:47:36;;;;;;;19.05;8.70;;;;;;;4.26;63.82;99083.78;4954573;29;20133;-63
2021/12/07 11:50:17;;;;;;;22.67;10.40;;;;;;;4.19;63.52;99082.84;4954855;29;20063;-63
2021/12/07 11:52:49;;;;;;;20.42;8.63;;;;;;;4.21;63.71;99081.19;4954134;29;20066;-63
2021/12/07 11:55:19;;;;;;;21.08;8.70;;;;;;;4.18;63.83;99076.09;4954285;29;20139;-63
2021/12/07 11:58:00;;;;;;;21.75;9.05;;;;;;;4.20;63.74;99078.66;4954354;29;20047;-64
2021/12/07 12:00:35;;;;;;;17.88;7.85;;;;;;;4.17;63.36;99063.44;4964938;28;20078;-65
2021/12/07 12:03:11;;;;;;;23.77;9.77;;;;;;;4.11;63.64;99064.19;4975450;28;20138;-64
2021/12/07 12:05:43;;;;;;;21.08;8.20;;;;;;;4.26;64.06;99063.56;4975560;28;20467;-64
2021/12/07 12:08:19;;;;;;;20.90;8.20;;;;;;;4.37;64.15;99062.91;4975450;28;20054;-65
2021/12/07 12:10:56;;;;;;;24.40;8.55;;;;;;;4.42;63.74;99070.53;4975318;28;20106;-64
2021/12/07 12:13:41;;;;;;;21.73;8.63;;;;;;;4.51;64.10;99073.22;4975720;28;20485;-64
2021/12/07 12:16:23;;;;;;;21.63;8.50;;;;;;;4.51;64.11;99070.69;4974921;28;20047;-65
2021/12/07 12:19:03;;;;;;;20.17;8.45;;;;;;;4.50;64.07;99066.44;4975103;28;20051;-64
2021/12/07 12:21:38;;;;;;;19.65;8.85;;;;;;;4.40;63.40;99068.00;4975637;28;20039;-64
2021/12/07 12:24:18;;;;;;;22.38;8.13;;;;;;;4.26;63.35;99063.56;4974463;28;20090;-64
2021/12/07 12:27:06;;;;;;;20.20;8.73;;;;;;;4.36;63.95;99075.50;4975519;28;20437;-64
2021/12/07 12:29:40;;;;;;;26.00;10.23;;;;;;;4.35;63.88;99072.13;4974795;28;20141;-64
2021/12/07 12:32:10;;;;;;;22.33;8.38;;;;;;;4.27;64.08;99077.91;4974899;28;20047;-64
2021/12/07 12:34:49;;;;;;;25.13;9.60;;;;;;;4.27;63.66;99065.28;4975061;28;20042;-64
2021/12/07 12:37:21;;;;;;;17.83;7.65;;;;;;;4.29;63.87;99074.59;4975194;28;20043;-64
2021/12/07 12:39:54;;;;;;;21.38;8.65;;;;;;;4.30;64.16;99062.78;4974851;28;20061;-65
2021/12/07 12:42:33;;;;;;;19.60;9.60;;;;;;;4.27;64.05;99066.13;4974765;28;20051;-63
2021/12/07 12:45:19;;;;;;;17.42;8.00;;;;;;;4.29;64.01;99063.63;4974202;28;20061;-65
2021/12/07 12:47:56;;;;;;;20.85;8.90;;;;;;;4.18;63.95;99062.59;4974869;28;20501;-64
2021/12/07 12:50:34;;;;;;;19.48;8.20;;;;;;;4.08;63.92;99062.47;4975114;28;20058;-65
2021/12/07 12:53:06;;;;;;;23.47;8.80;;;;;;;4.11;63.78;99063.34;4974954;28;20435;-64
2021/12/07 12:55:41;;;;;;;21.25;8.40;;;;;;;4.00;64.00;99064.06;4974503;28;20051;-64
2021/12/07 12:58:20;;;;;;;21.38;9.18;;;;;;;3.96;64.11;99067.34;4974738;28;20035;-65
2021/12/07 13:01:05;;;;;;;22.75;8.00;;;;;;;3.88;64.34;99066.41;4974646;28;20047;-65
2021/12/07 13:03:56;;;;;;;26.58;8.68;;;;;;;3.85;64.29;99066.34;4974659;28;20047;-65
2021/12/07 13:07:00;;;;;;;22.83;9.38;;;;;;;3.92;64.14;99058.03;4973345;28;20039;-64
2021/12/07 13:09:45;;;;;;;18.50;8.32;;;;;;;3.87;64.45;99064.69;4974953;28;20496;-63
2021/12/07 13:12:19;;;;;;;21.13;8.40;;;;;;;3.92;64.22;99055.50;4973208;28;20061;-66
2021/12/07 13:14:58;;;;;;;21.80;8.75;;;;;;;3.88;64.73;99066.41;4974537;28;20501;-65
2021/12/07 13:17:39;;;;;;;24.85;9.10;;;;;;;3.89;64.48;99073.13;4974534;28;20094;-64
2021/12/07 13:20:35;;;;;;;21.42;8.38;;;;;;;3.78;64.92;99073.78;4974772;28;20086;-64
2021/12/07 13:23:09;;;;;;;20.67;9.73;;;;;;;3.70;65.20;99077.84;4953059;29;20126;-64
2021/12/07 13:25:43;;;;;;;23.05;8.07;;;;;;;3.63;65.09;99074.38;4952670;29;20055;-65
2021/12/07 13:28:24;;;;;;;18.35;8.48;;;;;;;3.57;64.87;99079.34;4953176;29;20048;-64
2021/12/07 13:31:04;;;;;;;21.75;8.57;;;;;;;3.52;65.86;99085.97;4952966;29;20065;-64